Flight Track Log - Related Links

Times and Time Zones

All times are in EDT time to prevent confusion due to time zone crossing. See the ACA831 flight status page for this flight to view local times or setup timezone preferences in your user account.

Time Position Orientation Groundspeed Altitude Reporting Facility
EDT Latitude Longitude Course Direction KTS MPH feet Rate Location/Type
Fri 06:24:27 AM 46.2330 6.1010 226° Southwest 170 196 1,700  Level FlightAware ADS-B
Fri 06:24:57 AM 46.2140 6.0750 223° Southwest 181 208 3,100 2,509 Climbing FlightAware ADS-B
Fri 06:25:22 AM 46.2000 6.0540 226° Southwest 186 214 4,000 2,291 Climbing FlightAware ADS-B
Fri 06:25:52 AM 46.1810 6.0250 227° Southwest 187 215 5,200 2,291 Climbing FlightAware ADS-B
Fri 06:26:17 AM 46.1650 6.0020 225° Southwest 195 224 6,100 2,182 Climbing FlightAware ADS-B
Fri 06:26:47 AM 46.1470 5.9740 227° Southwest 193 222 7,200 1,867 Climbing FlightAware ADS-B
Fri 06:27:02 AM 46.1390 5.9550 239° Southwest 216 249 7,500 750 Climbing FlightAware ADS-B
Fri 06:27:27 AM 46.1440 5.9250 284° West 246 283 7,700 686 Climbing FlightAware ADS-B
Fri 06:27:37 AM 46.1510 5.9140 313° West 260 299 7,900 1,600 Climbing FlightAware ADS-B
Fri 06:27:57 AM 46.1760 5.9020 342° North 282 325 8,500 2,100 Climbing FlightAware ADS-B
Fri 06:28:17 AM 46.2100 5.9100 North 300 345 9,300 1,971 Climbing FlightAware ADS-B
Fri 06:29:07 AM 46.2800 5.9090 359° North 326 375 10,800 1,533 Climbing FlightAware ADS-B
Fri 06:29:47 AM 46.3370 5.8640 331° Northwest 370 426 11,600 1,650 Climbing FlightAware ADS-B
Fri 06:30:27 AM 46.3990 5.8140 331° Northwest 397 457 13,000 2,400 Climbing FlightAware ADS-B
Fri 06:31:12 AM 46.4790 5.7490 331° Northwest 411 473 15,000 2,471 Climbing FlightAware ADS-B
Fri 06:31:52 AM 46.5460 5.6940 331° Northwest 424 488 16,500 2,541 Climbing FlightAware ADS-B
Fri 06:32:37 AM 46.6150 5.6370 330° Northwest 415 478 18,600 2,541 Climbing FlightAware ADS-B
Fri 06:33:17 AM 46.6860 5.5790 331° Northwest 422 486 20,100 2,118 Climbing FlightAware ADS-B
Fri 06:34:02 AM 46.7640 5.5140 330° Northwest 428 493 21,600 1,553 Climbing FlightAware ADS-B
Fri 06:34:42 AM 46.8250 5.4400 320° Northwest 443 510 22,300 1,341 Climbing FlightAware ADS-B
Fri 06:35:27 AM 46.8910 5.3430 315° West 456 525 23,500 1,694 Climbing FlightAware ADS-B
Fri 06:36:07 AM 46.9510 5.2540 315° West 461 531 24,700 1,650 Climbing FlightAware ADS-B
Fri 06:36:47 AM 47.0120 5.1640 315° West 468 539 25,700 1,553 Climbing FlightAware ADS-B
Fri 06:37:32 AM 47.0820 5.0600 315° West 473 544 26,900 1,624 Climbing FlightAware ADS-B
Fri 06:38:12 AM 47.1390 4.9740 314° West 473 544 28,000 1,694 Climbing FlightAware ADS-B
Fri 06:38:57 AM 47.2080 4.8710 315° West 466 536 29,300 1,553 Climbing FlightAware ADS-B
Fri 06:39:37 AM 47.2660 4.7830 314° West 468 539 30,200 1,350 Climbing FlightAware ADS-B
Fri 06:40:17 AM 47.3300 4.6860 314° West 475 547 31,100 1,059 Climbing FlightAware ADS-B
Fri 06:41:02 AM 47.4030 4.5760 314° West 481 554 31,700 635 Climbing FlightAware ADS-B
Fri 06:41:42 AM 47.4590 4.4900 314° West 482 555 32,000 212 Climbing FlightAware ADS-B
Fri 06:42:27 AM 47.5330 4.3770 314° West 475 547 32,000  Level FlightAware ADS-B
Fri 06:43:02 AM 47.5830 4.2990 314° West 471 542 32,000  Level FlightAware ADS-B
Fri 06:43:47 AM 47.6540 4.1900 314° West 470 541 32,000  Level FlightAware ADS-B
Fri 06:44:32 AM 47.7210 4.0860 314° West 467 537 32,000  Level FlightAware ADS-B
Fri 06:45:12 AM 47.7810 3.9940 314° West 466 536 32,000  Level FlightAware ADS-B
Fri 06:45:52 AM 47.8410 3.9010 314° West 466 536 32,000  Level FlightAware ADS-B
Fri 06:46:37 AM 47.9060 3.7990 314° West 466 536 32,000  Level FlightAware ADS-B
Fri 06:47:17 AM 47.9680 3.7000 313° West 466 536 32,000  Level FlightAware ADS-B
Fri 06:48:02 AM 48.0320 3.6000 314° West 466 536 32,000  Level FlightAware ADS-B
Fri 06:48:47 AM 48.1000 3.4920 313° West 466 536 32,000  Level FlightAware ADS-B
Fri 06:49:27 AM 48.1580 3.4000 313° West 465 535 32,000  Level FlightAware ADS-B
Fri 06:50:12 AM 48.2230 3.2930 312° West 460 529 32,000  Level FlightAware ADS-B
Fri 06:50:41 AM 48.2573 3.2094 302° West 452 520 32,000  Level FlightAware ADS-B
Fri 06:50:48 AM 48.2633 3.1891 294° West 449 517 32,000  Level FlightAware ADS-B
Fri 06:51:02 AM 48.2729 3.1484 290° West 444 511 32,000  Level FlightAware ADS-B
Fri 06:51:33 AM 48.2923 3.0584 288° West 444 511 32,000  Level FlightAware ADS-B
Fri 06:52:04 AM 48.3118 2.9664 288° West 443 510 32,000  Level FlightAware ADS-B
Fri 06:52:57 AM 48.3420 2.8230 288° West 442 509 32,000  Level FlightAware ADS-B
Fri 06:53:04 AM 48.3484 2.7903 286° West 443 510 32,000  Level FlightAware ADS-B
Fri 06:53:35 AM 48.3669 2.7008 287° West 442 509 32,000  Level FlightAware ADS-B
Fri 06:54:06 AM 48.3857 2.6093 287° West 442 509 32,000  Level FlightAware ADS-B
Fri 06:54:59 AM 48.4174 2.4544 287° West 442 509 32,000  Level FlightAware ADS-B
Fri 06:55:30 AM 48.4356 2.3647 287° West 440 506 32,000  Level FlightAware ADS-B
Fri 06:56:01 AM 48.4537 2.2748 287° West 441 507 32,000  Level FlightAware ADS-B
Fri 06:56:32 AM 48.4719 2.1847 287° West 441 507 32,000  Level FlightAware ADS-B
Fri 06:57:04 AM 48.4908 2.0906 287° West 441 507 32,000  Level FlightAware ADS-B
Fri 06:57:37 AM 48.5107 1.9928 287° West 440 506 32,000  Level FlightAware ADS-B
Fri 06:58:09 AM 48.5296 1.8992 287° West 439 505 32,000 -1,765 Level FlightAware ADS-B
Fri 06:58:28 AM 48.5416 1.8418 287° West 462 532 30,500  Descending FlightAware UK
Fri 06:58:41 AM 48.5487 1.8042 287° West 439 505 32,000  Climbing FlightAware ADS-B
Fri 06:59:04 AM 48.5622 1.7362 287° West 460 529 30,500  Descending FlightAware UK
Fri 06:59:17 AM 48.5695 1.6996 287° West 438 504 32,000 1,698 Climbing FlightAware ADS-B
Fri 06:59:57 AM 48.5890 1.6040 287° West 435 501 32,000 -1,525 Level FlightAware ADS-B
Fri 07:00:16 AM 48.6042 1.5267 287° West 460 529 30,500  Descending FlightAware UK
Fri 07:00:37 AM 48.6120 1.4850 287° West 434 499 32,000  Climbing FlightAware ADS-B
Fri 07:00:52 AM 48.6245 1.4222 287° West 458 527 30,500 -2,727 Descending FlightAware UK
Fri 07:01:10 AM 48.6347 1.3697 286° West 460 529 30,500  Level FlightAware UK
Fri 07:01:28 AM 48.6449 1.3172 286° West 460 529 30,500 2,143 Level FlightAware UK
Fri 07:01:52 AM 48.6580 1.2530 286° West 435 501 32,000  Climbing FlightAware ADS-B
Fri 07:02:16 AM 48.6718 1.1770 286° West 462 532 30,500  Descending FlightAware UK
Fri 07:02:32 AM 48.6800 1.1350 286° West 434 499 32,000 3,913 Climbing FlightAware ADS-B
Fri 07:02:39 AM 48.6850 1.1116 288° West 436 502 32,000 -3,462 Level FlightAware ADS-B
Fri 07:02:58 AM 48.6956 1.0548 288° West 464 534 30,500  Descending FlightAware UK
Fri 07:03:12 AM 48.7020 1.0230 288° West 434 499 32,000 4,737 Climbing FlightAware ADS-B
Fri 07:03:17 AM 48.7061 1.0026 287° West 434 499 32,000 -4,091 Level FlightAware ADS-B
Fri 07:03:34 AM 48.7160 0.9510 287° West 462 532 30,500  Descending FlightAware UK
Fri 07:03:57 AM 48.7270 0.8900 287° West 433 498 32,000  Climbing FlightAware ADS-B
Fri 07:04:16 AM 48.7392 0.8290 287° West 462 532 30,500 -2,432 Descending FlightAware UK
Fri 07:04:34 AM 48.7490 0.7773 286° West 460 529 30,500 4,286 Level FlightAware UK
Fri 07:04:37 AM 48.7490 0.7790 286° West 432 497 32,000  Climbing FlightAware ADS-B
Fri 07:05:04 AM 48.7654 0.6900 286° West 462 532 30,500  Descending FlightAware UK
Fri 07:05:12 AM 48.7680 0.6780 286° West 432 497 32,000  Climbing FlightAware ADS-B
Fri 07:05:46 AM 48.7884 0.5677 286° West 456 525 30,500  Descending FlightAware UK
Fri 07:06:02 AM 48.7970 0.5240 286° West 432 497 32,000 1,607 Climbing FlightAware ADS-B
Fri 07:06:42 AM 48.8180 0.4090 286° West 432 497 32,000 -1,607 Level FlightAware ADS-B
Fri 07:06:58 AM 48.8276 0.3598 286° West 456 525 30,500 -2,647 Descending FlightAware UK
Fri 07:07:16 AM 48.8372 0.3074 286° West 456 525 30,500 3,103 Level FlightAware UK
Fri 07:07:27 AM 48.8420 0.2830 286° West 433 498 32,000  Climbing FlightAware ADS-B
Fri 07:08:04 AM 48.8630 0.1673 286° West 458 527 30,500  Descending FlightAware UK
Fri 07:08:07 AM 48.8620 0.1740 286° West 433 498 32,000 2,368 Climbing FlightAware ADS-B
Fri 07:08:42 AM 48.8830 0.0580 285° West 433 498 32,000 -1,607 Level FlightAware ADS-B
Fri 07:09:03 AM 48.8947 -0.0078 285° West 460 529 30,500 -2,308 Descending FlightAware UK
Fri 07:09:21 AM 48.9041 -0.0601 285° West 462 532 30,500 3,103 Level FlightAware UK
Fri 07:09:32 AM 48.9090 -0.0840 285° West 433 498 32,000  Climbing FlightAware ADS-B
Fri 07:10:03 AM 48.9264 -0.1834 285° West 462 532 30,500  Descending FlightAware UK
Fri 07:10:12 AM 48.9300 -0.2030 285° West 433 498 32,000  Climbing FlightAware ADS-B
Fri 07:10:27 AM 48.9390 -0.2539 285° West 464 534 30,500  Descending FlightAware UK
Fri 07:10:52 AM 48.9520 -0.3220 285° West 433 498 32,000  Climbing FlightAware ADS-B
Fri 07:11:09 AM 48.9610 -0.3765 285° West 460 529 30,500 -2,571 Descending FlightAware UK
Fri 07:11:27 AM 48.9704 -0.4293 285° West 458 527 30,500 3,214 Level FlightAware UK
Fri 07:11:37 AM 48.9720 -0.4350 285° West 432 497 32,000 1,636 Climbing FlightAware ADS-B
Fri 07:12:22 AM 48.9970 -0.5750 285° West 431 496 32,000 -1,125 Level FlightAware ADS-B
Fri 07:12:57 AM 49.0167 -0.6923 285° West 462 532 30,500  Descending FlightAware UK
Fri 07:13:12 AM 49.0240 -0.7300 285° West 431 496 32,000  Climbing FlightAware ADS-B
Fri 07:13:51 AM 49.0441 -0.8496 285° West 462 532 30,500  Descending FlightAware UK
Fri 07:13:57 AM 49.0460 -0.8540 285° West 428 493 32,000  Climbing FlightAware ADS-B
Fri 07:14:33 AM 49.0654 -0.9723 285° West 466 536 30,500  Descending FlightAware UK
Fri 07:14:37 AM 49.0670 -0.9780 285° West 427 491 32,000  Climbing FlightAware ADS-B
Fri 07:14:57 AM 49.0775 -1.0422 285° West 468 539 30,500  Descending FlightAware UK
Fri 07:15:12 AM 49.0840 -1.0770 285° West 426 490 32,000  Climbing FlightAware ADS-B
Fri 07:15:15 AM 49.0865 -1.0946 285° West 468 539 30,500 -6,000 Descending FlightAware UK
Fri 07:15:27 AM 49.0925 -1.1295 285° West 468 539 30,500  Level FlightAware UK
Fri 07:15:45 AM 49.1013 -1.1818 284° West 464 534 30,500  Level FlightAware UK
Fri 07:16:02 AM 49.1102 -1.2333 285° West 466 536 30,500  Level FlightAware UK
Fri 07:16:26 AM 49.1219 -1.3026 284° West 464 534 30,500 2,000 Level FlightAware UK
Fri 07:16:47 AM 49.1290 -1.3440 284° West 420 483 32,000  Climbing FlightAware ADS-B
Fri 07:17:08 AM 49.1424 -1.4229 284° West 464 534 30,500  Descending FlightAware UK
Fri 07:17:42 AM 49.1560 -1.5030 284° West 417 480 32,000 1,216 Climbing FlightAware ADS-B
Fri 07:18:22 AM 49.1760 -1.6250 284° West 416 479 32,000  Level FlightAware ADS-B
Fri 07:19:02 AM 49.1950 -1.7390 284° West 413 475 32,000 -1,552 Level FlightAware ADS-B
Fri 07:19:20 AM 49.2049 -1.7973 284° West 458 527 30,500  Descending FlightAware UK
Fri 07:19:47 AM 49.2160 -1.8640 284° West 411 473 32,000  Climbing FlightAware ADS-B
Fri 07:20:02 AM 49.2240 -1.9153 284° West 458 527 30,500  Descending FlightAware UK
Fri 07:20:27 AM 49.2350 -1.9780 284° West 409 471 32,000  Climbing FlightAware ADS-B
Fri 07:20:44 AM 49.2439 -2.0332 284° West 458 527 30,500 -2,571 Descending FlightAware UK
Fri 07:21:02 AM 49.2517 -2.0837 283° West 458 527 30,500 3,913 Level FlightAware UK
Fri 07:21:07 AM 49.2500 -2.0770 283° West 407 468 32,000  Climbing FlightAware ADS-B
Fri 07:21:26 AM 49.2623 -2.1507 283° West 456 525 30,500 -2,432 Descending FlightAware UK
Fri 07:21:44 AM 49.2701 -2.2001 284° West 458 527 30,500  Level FlightAware UK
Fri 07:22:02 AM 49.2781 -2.2500 284° West 456 525 30,500 2,368 Level FlightAware UK
Fri 07:22:22 AM 49.2830 -2.2780 284° West 407 468 32,000  Climbing FlightAware ADS-B
Fri 07:22:37 AM 49.2942 -2.3497 284° West 454 522 30,500  Descending FlightAware UK
Fri 07:22:52 AM 49.2970 -2.3670 284° West 408 470 32,000  Climbing FlightAware ADS-B
Fri 07:23:07 AM 49.3075 -2.4335 284° West 454 522 30,500 -2,727 Descending FlightAware UK
Fri 07:23:25 AM 49.3154 -2.4841 284° West 454 522 30,500  Level FlightAware UK
Fri 07:23:43 AM 49.3232 -2.5347 283° West 456 525 30,500 2,813 Level FlightAware UK
Fri 07:23:57 AM 49.3260 -2.5500 283° West 408 470 32,000  Climbing FlightAware ADS-B
Fri 07:24:19 AM 49.3392 -2.6365 283° West 458 527 30,500  Descending FlightAware UK
Fri 07:24:42 AM 49.3450 -2.6740 283° West 412 474 32,000  Climbing FlightAware ADS-B
Fri 07:25:01 AM 49.3580 -2.7552 283° West 464 534 30,500  Descending FlightAware UK
Fri 07:25:22 AM 49.3640 -2.7950 283° West 414 476 32,000  Climbing FlightAware ADS-B
Fri 07:25:37 AM 49.3735 -2.8580 283° West 466 536 30,500 -2,727 Descending FlightAware UK
Fri 07:25:55 AM 49.3815 -2.9088 284° West 464 534 30,500  Level FlightAware UK
Fri 07:26:13 AM 49.3896 -2.9607 283° West 464 534 30,500 4,091 Level FlightAware UK
Fri 07:26:17 AM 49.3880 -2.9480 283° West 412 474 32,000  Climbing FlightAware ADS-B
Fri 07:26:49 AM 49.4052 -3.0630 283° West 462 532 30,500  Descending FlightAware UK
Fri 07:27:02 AM 49.4080 -3.0810 283° West 415 478 32,000  Climbing FlightAware ADS-B
Fri 07:27:25 AM 49.4207 -3.1659 283° West 462 532 30,500  Descending FlightAware UK
Fri 07:27:42 AM 49.4260 -3.2030 283° West 414 476 32,000  Climbing FlightAware ADS-B
Fri 07:28:01 AM 49.4361 -3.2685 283° West 460 529 30,500  Descending FlightAware UK
Fri 07:28:22 AM 49.4440 -3.3190 283° West 414 476 32,000  Climbing FlightAware ADS-B
Fri 07:28:37 AM 49.4516 -3.3720 283° West 464 534 30,500 -2,308 Descending FlightAware UK
Fri 07:29:01 AM 49.4620 -3.4412 283° West 466 536 30,500 3,000 Level FlightAware UK
Fri 07:29:07 AM 49.4630 -3.4480 283° West 417 480 32,000  Climbing FlightAware ADS-B
Fri 07:29:25 AM 49.4723 -3.5107 283° West 466 536 30,500  Descending FlightAware UK
Fri 07:29:47 AM 49.4800 -3.5610 283° West 417 480 32,000 1,343 Climbing FlightAware ADS-B
Fri 07:30:32 AM 49.5000 -3.6970 283° West 417 480 32,000  Level FlightAware ADS-B
Fri 07:31:12 AM 49.5150 -3.8020 282° West 417 480 32,000 -1,268 Level FlightAware ADS-B
Fri 07:31:43 AM 49.5309 -3.9104 282° West 466 536 30,500  Descending FlightAware UK
Fri 07:31:52 AM 49.5320 -3.9200 282° West 416 479 32,000  Climbing FlightAware ADS-B
Fri 07:32:07 AM 49.5408 -3.9799 282° West 468 539 30,500 -2,308 Descending FlightAware UK
Fri 07:32:31 AM 49.5506 -4.0494 282° West 468 539 30,500 3,000 Level FlightAware UK
Fri 07:32:37 AM 49.5500 -4.0480 282° West 416 479 32,000  Climbing FlightAware ADS-B
Fri 07:32:55 AM 49.5604 -4.1189 282° West 466 536 30,500 -2,500 Descending FlightAware UK
Fri 07:33:13 AM 49.5676 -4.1710 282° West 466 536 30,500 4,091 Level FlightAware UK
Fri 07:33:17 AM 49.5670 -4.1680 282° West 416 479 32,000  Climbing FlightAware ADS-B
Fri 07:33:42 AM 49.5797 -4.2574 282° West 466 536 30,500  Descending FlightAware UK
Fri 07:34:02 AM 49.5860 -4.2980 282° West 421 484 32,000  Climbing FlightAware ADS-B
Fri 07:34:18 AM 49.6034 -4.3594 282° West 468 539 30,500  Descending FlightAware UK
Fri 07:34:42 AM 49.6200 -4.4030 282° West 438 504 32,000  Climbing FlightAware ADS-B
Fri 07:35:00 AM 49.6473 -4.4714 282° West 466 536 30,500 -2,500 Descending FlightAware UK
Fri 07:35:18 AM 49.6670 -4.5190 303° West 468 539 30,500 4,091 Level FlightAware UK
Fri 07:35:22 AM 49.6640 -4.5110 303° West 436 502 32,000  Climbing FlightAware ADS-B
Fri 07:35:42 AM 49.6935 -4.5823 303° West 466 536 30,500  Descending FlightAware UK
Fri 07:36:07 AM 49.7150 -4.6340 303° West 434 499 32,000  Climbing FlightAware ADS-B
Fri 07:36:24 AM 49.7390 -4.6934 303° West 464 534 30,500  Descending FlightAware UK
Fri 07:36:47 AM 49.7570 -4.7380 303° West 435 501 32,000  Climbing FlightAware ADS-B
Fri 07:37:06 AM 49.7840 -4.8044 303° West 466 536 30,500 -2,432 Descending FlightAware UK
Fri 07:37:24 AM 49.8037 -4.8527 302° West 466 536 30,500 3,462 Level FlightAware UK
Fri 07:37:32 AM 49.8050 -4.8560 302° West 433 498 32,000  Climbing FlightAware ADS-B
Fri 07:37:48 AM 49.8292 -4.9159 302° West 464 534 30,500 -2,647 Descending FlightAware UK
Fri 07:38:06 AM 49.8484 -4.9637 302° West 466 536 30,500 3,750 Level FlightAware UK
Fri 07:38:12 AM 49.8480 -4.9630 302° West 437 503 32,000  Climbing FlightAware ADS-B
Fri 07:38:30 AM 49.8739 -5.0275 302° West 464 534 30,500 -2,500 Descending FlightAware UK
Fri 07:38:48 AM 49.8930 -5.0753 302° West 464 534 30,500 4,091 Level FlightAware UK
Fri 07:38:52 AM 49.8890 -5.0660 302° West 436 502 32,000  Climbing FlightAware ADS-B
Fri 07:39:12 AM 49.9184 -5.1390 302° West 462 532 30,500 -2,368 Descending FlightAware UK
Fri 07:39:30 AM 49.9374 -5.1869 302° West 464 534 30,500 3,600 Level FlightAware UK
Fri 07:39:37 AM 49.9390 -5.1920 302° West 436 502 32,000  Climbing FlightAware ADS-B
Fri 07:39:54 AM 49.9628 -5.2507 302° West 464 534 30,500 -2,571 Descending FlightAware UK
Fri 07:40:12 AM 49.9819 -5.2985 302° West 464 534 30,500 3,913 Level FlightAware UK
Fri 07:40:17 AM 49.9800 -5.2930 302° West 436 502 32,000  Climbing FlightAware ADS-B
Fri 07:40:36 AM 50.0073 -5.3624 302° West 464 534 30,500 -2,432 Descending FlightAware UK
Fri 07:40:54 AM 50.0262 -5.4104 302° West 466 536 30,500 3,462 Level FlightAware UK
Fri 07:41:02 AM 50.0290 -5.4180 302° West 436 502 32,000  Climbing FlightAware ADS-B
Fri 07:41:18 AM 50.0514 -5.4743 302° West 466 536 30,500 -2,647 Descending FlightAware UK
Fri 07:41:36 AM 50.0703 -5.5223 302° West 466 536 30,500 3,750 Level FlightAware UK
Fri 07:41:42 AM 50.0690 -5.5190 302° West 435 501 32,000  Climbing FlightAware ADS-B
Fri 07:42:00 AM 50.0955 -5.5864 302° West 468 539 30,500 -2,500 Descending FlightAware UK
Fri 07:42:18 AM 50.1143 -5.6345 301° West 470 541 30,500 4,091 Level FlightAware UK
Fri 07:42:22 AM 50.1130 -5.6320 301° West 435 501 32,000  Climbing FlightAware ADS-B
Fri 07:42:42 AM 50.1394 -5.6986 301° West 466 536 30,500 -2,368 Descending FlightAware UK
Fri 07:43:00 AM 50.1583 -5.7465 302° West 466 536 30,500 3,600 Level FlightAware UK
Fri 07:43:07 AM 50.1630 -5.7590 302° West 434 499 32,000  Climbing FlightAware ADS-B
Fri 07:43:24 AM 50.1832 -5.8106 302° West 466 536 30,500 -2,571 Descending FlightAware UK
Fri 07:43:42 AM 50.2019 -5.8587 301° West 466 536 30,500 3,913 Level FlightAware UK
Fri 07:43:47 AM 50.2030 -5.8630 301° West 433 498 32,000  Climbing FlightAware ADS-B
Fri 07:44:06 AM 50.2265 -5.9223 301° West 468 539 30,500 -2,432 Descending FlightAware UK
Fri 07:44:24 AM 50.2450 -5.9703 301° West 468 539 30,500 3,462 Level FlightAware UK
Fri 07:44:32 AM 50.2510 -5.9840 301° West 433 498 32,000  Climbing FlightAware ADS-B
Fri 07:44:48 AM 50.2698 -6.0346 301° West 466 536 30,500 -2,647 Descending FlightAware UK
Fri 07:45:06 AM 50.2883 -6.0825 301° West 466 536 30,500 3,750 Level FlightAware UK
Fri 07:45:12 AM 50.2900 -6.0870 301° West 431 496 32,000  Climbing FlightAware ADS-B
Fri 07:45:30 AM 50.3129 -6.1467 301° West 466 536 30,500 -2,500 Descending FlightAware UK
Fri 07:45:48 AM 50.3314 -6.1946 301° West 466 536 30,500 4,091 Level FlightAware UK
Fri 07:45:52 AM 50.3330 -6.1980 301° West 431 496 32,000  Climbing FlightAware ADS-B
Fri 07:46:12 AM 50.3559 -6.2587 301° West 466 536 30,500 -2,368 Descending FlightAware UK
Fri 07:46:30 AM 50.3743 -6.3068 301° West 466 536 30,500 3,600 Level FlightAware UK
Fri 07:46:37 AM 50.3780 -6.3170 301° West 430 495 32,000  Climbing FlightAware ADS-B
Fri 07:46:54 AM 50.3987 -6.3708 301° West 466 536 30,500 -2,571 Descending FlightAware UK
Fri 07:47:12 AM 50.4167 -6.4191 300° West 466 536 30,500 3,913 Level FlightAware UK
Fri 07:47:17 AM 50.4170 -6.4250 300° West 427 491 32,000  Climbing FlightAware ADS-B
Fri 07:47:36 AM 50.4340 -6.4879 300° West 466 536 30,500 -2,432 Descending FlightAware UK
Fri 07:47:54 AM 50.4463 -6.5395 290° West 466 536 30,500 3,462 Level FlightAware UK
Fri 07:48:02 AM 50.4500 -6.5550 290° West 425 489 32,000  Climbing FlightAware ADS-B
Fri 07:48:18 AM 50.4621 -6.6090 290° West 464 534 30,500 -2,647 Descending FlightAware UK
Fri 07:48:36 AM 50.4742 -6.6610 290° West 464 534 30,500 3,750 Level FlightAware UK
Fri 07:48:42 AM 50.4770 -6.6710 290° West 423 487 32,000  Climbing FlightAware ADS-B
Fri 07:49:00 AM 50.4903 -6.7303 290° West 462 532 30,500 -2,500 Descending FlightAware UK
Fri 07:49:18 AM 50.5021 -6.7824 290° West 464 534 30,500 4,091 Level FlightAware UK
Fri 07:49:22 AM 50.5030 -6.7870 290° West 423 487 32,000  Climbing FlightAware ADS-B
Fri 07:49:42 AM 50.5176 -6.8518 290° West 464 534 30,500 -2,368 Descending FlightAware UK
Fri 07:50:00 AM 50.5291 -6.9040 289° West 464 534 30,500 3,600 Level FlightAware UK
Fri 07:50:07 AM 50.5310 -6.9150 289° West 422 486 32,000  Climbing FlightAware ADS-B
Fri 07:50:24 AM 50.5443 -6.9735 289° West 462 532 30,500 -2,571 Descending FlightAware UK
Fri 07:50:42 AM 50.5557 -7.0256 289° West 462 532 30,500 3,913 Level FlightAware UK
Fri 07:50:47 AM 50.5570 -7.0310 289° West 422 486 32,000  Climbing FlightAware ADS-B
Fri 07:51:06 AM 50.5709 -7.0944 289° West 464 534 30,500 -2,432 Descending FlightAware UK
Fri 07:51:24 AM 50.5823 -7.1465 289° West 462 532 30,500 4,286 Level FlightAware UK
Fri 07:51:27 AM 50.5830 -7.1470 289° West 422 486 32,000  Climbing FlightAware ADS-B
Fri 07:51:42 AM 50.5939 -7.1985 289° West 462 532 30,500 -2,727 Descending FlightAware UK
Fri 07:52:00 AM 50.6055 -7.2506 289° West 462 532 30,500 3,000 Level FlightAware UK
Fri 07:52:12 AM 50.6120 -7.2800 289° West 422 486 32,000  Climbing FlightAware ADS-B
Fri 07:52:30 AM 50.6244 -7.3376 289° West 462 532 30,500 -2,500 Descending FlightAware UK
Fri 07:52:48 AM 50.6358 -7.3899 289° West 460 529 30,500 4,091 Level FlightAware UK
Fri 07:52:52 AM 50.6360 -7.3920 289° West 423 487 32,000  Climbing FlightAware ADS-B
Fri 07:53:12 AM 50.6509 -7.4595 289° West 460 529 30,500 -2,368 Descending FlightAware UK
Fri 07:53:30 AM 50.6622 -7.5118 289° West 460 529 30,500 3,600 Level FlightAware UK
Fri 07:53:37 AM 50.6660 -7.5280 289° West 423 487 32,000  Climbing FlightAware ADS-B
Fri 07:53:54 AM 50.6774 -7.5817 289° West 462 532 30,500 -2,571 Descending FlightAware UK
Fri 07:54:12 AM 50.6887 -7.6342 289° West 460 529 30,500 3,913 Level FlightAware UK
Fri 07:54:17 AM 50.6910 -7.6430 289° West 424 488 32,000  Climbing FlightAware ADS-B
Fri 07:54:36 AM 50.7040 -7.7042 289° West 460 529 30,500 -2,432 Descending FlightAware UK
Fri 07:54:54 AM 50.7153 -7.7569 289° West 458 527 30,500 3,462 Level FlightAware UK
Fri 07:55:02 AM 50.7180 -7.7710 289° West 425 489 32,000  Climbing FlightAware ADS-B
Fri 07:55:18 AM 50.7303 -7.8272 289° West 460 529 30,500 -2,647 Descending FlightAware UK
Fri 07:55:36 AM 50.7415 -7.8800 289° West 462 532 30,500 3,750 Level FlightAware UK
Fri 07:55:42 AM 50.7440 -7.8920 289° West 425 489 32,000  Climbing FlightAware ADS-B
Fri 07:56:00 AM 50.7564 -7.9507 289° West 460 529 30,500 -2,500 Descending FlightAware UK
Fri 07:56:18 AM 50.7676 -8.0037 288° West 458 527 30,500  Level FlightAware UK
Fri 07:56:36 AM 50.7788 -8.0569 288° West 460 529 30,500 4,737 Level FlightAware UK
Fri 07:56:37 AM 50.7780 -8.0510 288° West 427 491 32,000  Climbing FlightAware ADS-B
Fri 07:56:54 AM 50.7901 -8.1100 288° West 462 532 30,500 -2,571 Descending FlightAware UK
Fri 07:57:12 AM 50.8014 -8.1633 289° West 462 532 30,500  Level FlightAware UK
Fri 07:57:30 AM 50.8125 -8.2161 289° West 462 532 30,500 4,500 Level FlightAware UK
Fri 07:57:32 AM 50.8130 -8.2170 289° West 429 494 32,000  Climbing FlightAware ADS-B
Fri 07:57:48 AM 50.8237 -8.2697 289° West 462 532 30,500 -2,647 Descending FlightAware UK
Fri 07:58:06 AM 50.8349 -8.3235 288° West 464 534 30,500  Level FlightAware UK
Fri 07:58:24 AM 50.8461 -8.3773 288° West 462 532 30,500 3,462 Level FlightAware UK
Fri 07:58:32 AM 50.8490 -8.3940 288° West 432 497 32,000  Climbing FlightAware ADS-B
Fri 07:58:48 AM 50.8609 -8.4493 288° West 462 532 30,500 -2,647 Descending FlightAware UK
Fri 07:59:06 AM 50.8720 -8.5034 288° West 464 534 30,500  Level FlightAware UK
Fri 07:59:24 AM 50.8832 -8.5576 288° West 462 532 30,500 4,286 Level FlightAware UK
Fri 07:59:27 AM 50.8820 -8.5510 288° West 434 499 32,000  Climbing FlightAware ADS-B
Fri 07:59:42 AM 50.8944 -8.6119 288° West 464 534 30,500 -2,727 Descending FlightAware UK
Fri 08:00:00 AM 50.9055 -8.6664 288° West 468 539 30,500 3,600 Level FlightAware UK
Fri 08:00:07 AM 50.9080 -8.6790 288° West 435 501 32,000  Climbing FlightAware ADS-B
Fri 08:00:24 AM 50.9206 -8.7390 288° West 468 539 30,500 -2,571 Descending FlightAware UK
Fri 08:00:42 AM 50.9317 -8.7936 288° West 472 543 30,500 3,913 Level FlightAware UK
Fri 08:00:47 AM 50.9310 -8.7900 288° West 436 502 32,000  Climbing FlightAware ADS-B
Fri 08:01:06 AM 50.9462 -8.8666 288° West 472 543 30,500 -2,432 Descending FlightAware UK
Fri 08:01:24 AM 50.9571 -8.9213 288° West 470 541 30,500 4,286 Level FlightAware UK
Fri 08:01:27 AM 50.9540 -8.9070 288° West 434 499 32,000  Climbing FlightAware ADS-B
Fri 08:01:42 AM 50.9681 -8.9759 288° West 470 541 30,500  Descending FlightAware UK
Fri 08:02:12 AM 50.9830 -9.0490 288° West 434 499 32,000 1,385 Climbing FlightAware ADS-B
Fri 08:02:47 AM 51.0070 -9.1690 288° West 434 499 32,000  Level FlightAware ADS-B
Fri 08:03:52 AM 51.0460 -9.3640 288° West 433 498 32,000  Level FlightAware ADS-B
Fri 08:04:47 AM 51.0760 -9.5200 287° West 432 497 32,000  Level FlightAware ADS-B
Fri 08:05:32 AM 51.1010 -9.6470 287° West 429 494 32,000  Level FlightAware ADS-B
Fri 08:06:07 AM 51.1230 -9.7600 287° West 425 489 32,000  Level FlightAware ADS-B
Fri 08:06:52 AM 51.1500 -9.9010 287° West 425 489 32,000  Level FlightAware ADS-B
Fri 08:07:37 AM 51.1740 -10.0260 287° West 422 486 32,000  Level FlightAware ADS-B
Fri 08:08:32 AM 51.2020 -10.1790 286° West 421 484 32,000  Level FlightAware ADS-B
Fri 08:09:07 AM 51.2240 -10.2900 288° West 420 483 32,000  Level FlightAware ADS-B
Fri 08:09:47 AM 51.2480 -10.4180 287° West 419 482 32,000  Level FlightAware ADS-B
Fri 08:10:47 AM 51.2790 -10.5940 286° West 419 482 32,000  Level FlightAware ADS-B
Fri 08:11:27 AM 51.2960 -10.6960 285° West 419 482 32,000  Level FlightAware ADS-B
Fri 08:12:17 AM 51.3280 -10.8530 288° West 419 482 32,000  Level FlightAware ADS-B
Fri 08:12:52 AM 51.3440 -10.9500 285° West 419 482 32,000  Level FlightAware ADS-B
Fri 08:13:32 AM 51.3620 -11.0520 286° West 419 482 32,000  Level FlightAware ADS-B
Fri 08:14:22 AM 51.3830 -11.1790 285° West 419 482 32,000  Level FlightAware ADS-B
Fri 08:15:02 AM 51.4000 -11.2820 285° West 419 482 32,000  Level FlightAware ADS-B
Fri 08:15:42 AM 51.4170 -11.3840 285° West 419 482 32,000  Level FlightAware ADS-B
Fri 08:16:22 AM 51.4340 -11.4860 285° West 419 482 32,000  Level FlightAware ADS-B
Fri 08:17:02 AM 51.4510 -11.5880 285° West 419 482 32,000  Level FlightAware ADS-B
Fri 08:17:52 AM 51.4720 -11.7160 285° West 419 482 32,000  Level FlightAware ADS-B
Fri 08:18:32 AM 51.4890 -11.8180 285° West 419 482 32,000 2,118 Level FlightAware ADS-B
Fri 08:19:17 AM 51.5510 -12.1210 288° West 418 481 35,000 2,250 Climbing FlightAware ADS-B
Fri 08:19:52 AM 51.5700 -12.2290 286° West 416 479 35,000  Level FlightAware ADS-B
Fri 08:20:52 AM 51.5970 -12.3950 285° West 416 479 35,000  Level FlightAware ADS-B
Fri 08:21:32 AM 51.6120 -12.4970 283° West 416 479 35,000  Level FlightAware ADS-B
Fri 08:22:12 AM 51.6280 -12.5990 284° West 416 479 35,000  Level FlightAware ADS-B
Fri 08:22:52 AM 51.6440 -12.7020 284° West 416 479 35,000  Level FlightAware ADS-B
Fri 08:23:42 AM 51.6640 -12.8300 284° West 416 479 35,000  Level FlightAware ADS-B
Fri 08:24:22 AM 51.6800 -12.9320 284° West 416 479 35,000  Level FlightAware ADS-B
Fri 08:25:02 AM 51.6950 -13.0340 283° West 416 479 35,000  Level FlightAware ADS-B
Fri 08:25:42 AM 51.7110 -13.1370 284° West 416 479 35,000  Level FlightAware ADS-B
Fri 08:26:22 AM 51.7270 -13.2390 284° West 416 479 35,000  Level FlightAware ADS-B
Fri 08:27:12 AM 51.7470 -13.3670 284° West 416 479 35,000  Level FlightAware ADS-B
Fri 08:27:52 AM 51.7630 -13.4700 284° West 416 479 35,000  Level FlightAware ADS-B
Fri 08:28:32 AM 51.7780 -13.5730 283° West 416 479 35,000  Level FlightAware ADS-B
Fri 08:29:12 AM 51.7940 -13.6750 284° West 416 479 35,000  Level FlightAware ADS-B
Fri 08:29:52 AM 51.8100 -13.7780 284° West 416 479 35,000  Level FlightAware ADS-B
Fri 08:32:00 AM 51.8754 -14.1719 285° West  Level Estimated
Fri 08:33:00 AM 51.9056 -14.3570 285° West  Level Estimated
Fri 08:34:00 AM 51.9355 -14.5423 285° West  Level Estimated
Fri 08:35:00 AM 51.9651 -14.7278 285° West  Level Estimated
Fri 08:36:00 AM 51.9944 -14.9136 284° West  Level Estimated
Fri 08:37:00 AM 52.0234 -15.0997 284° West  Level Estimated
Fri 08:38:00 AM 52.0521 -15.2859 284° West  Level Estimated
Fri 08:39:00 AM 52.0806 -15.4724 284° West  Level Estimated
Fri 08:40:00 AM 52.1087 -15.6592 284° West  Level Estimated
Fri 08:41:00 AM 52.1366 -15.8462 284° West  Level Estimated
Fri 08:42:00 AM 52.1641 -16.0334 284° West  Level Estimated
Fri 08:43:00 AM 52.1914 -16.2208 283° West  Level Estimated
Fri 08:44:00 AM 52.2183 -16.4085 283° West  Level Estimated
Fri 08:45:00 AM 52.2450 -16.5964 283° West  Level Estimated
Fri 08:46:00 AM 52.2714 -16.7845 283° West  Level Estimated
Fri 08:47:00 AM 52.2974 -16.9729 283° West  Level Estimated
Fri 08:48:00 AM 52.3239 -17.1667 283° West  Level Estimated
Fri 08:49:00 AM 52.3501 -17.3608 283° West  Level Estimated
Fri 08:50:00 AM 52.3759 -17.5551 282° West  Level Estimated
Fri 08:51:00 AM 52.4014 -17.7497 282° West  Level Estimated
Fri 08:52:00 AM 52.4266 -17.9445 282° West  Level Estimated
Fri 08:53:00 AM 52.4515 -18.1395 282° West  Level Estimated
Fri 08:54:00 AM 52.4761 -18.3347 282° West  Level Estimated
Fri 08:55:00 AM 52.5003 -18.5301 282° West  Level Estimated
Fri 08:56:00 AM 52.5242 -18.7258 281° West  Level Estimated
Fri 08:57:00 AM 52.5478 -18.9216 281° West  Level Estimated
Fri 08:58:00 AM 52.5711 -19.1177 281° West  Level Estimated
Fri 08:59:00 AM 52.5940 -19.3140 281° West  Level Estimated
Fri 09:00:00 AM 52.6166 -19.5105 281° West  Level Estimated
Fri 09:01:00 AM 52.6390 -19.7071 281° West  Level Estimated
Fri 09:02:00 AM 52.6609 -19.9040 281° West  Level Estimated
Fri 09:03:00 AM 52.6826 -20.1011 280° West  Level Estimated
Fri 09:03:58 AM 52.0000 -20.0000 265° West 453 521 35,000  Level ETMS Enhanced Traffic Management System
Fri 09:04:00 AM 52.7039 -20.2984 280° West  Level Estimated
Fri 09:05:00 AM 52.7249 -20.4958 280° West  Level Estimated
Fri 09:06:00 AM 52.7455 -20.6935 280° West  Level Estimated
Fri 09:07:00 AM 52.7659 -20.8913 280° West  Level Estimated
Fri 09:08:00 AM 52.7859 -21.0893 280° West  Level Estimated
Fri 09:09:00 AM 52.8055 -21.2875 279° West  Level Estimated
Fri 09:10:00 AM 51.8686 -22.0324 263° West 453 521 35,000  Level FlightAware Transoceanic
Fri 09:11:00 AM 51.8535 -22.2350 263° West 453 521 35,000  Level FlightAware Transoceanic
Fri 09:12:00 AM 51.8381 -22.4374 263° West 453 521 35,000  Level FlightAware Transoceanic
Fri 09:13:00 AM 51.8224 -22.6397 263° West 453 521 35,000  Level FlightAware Transoceanic
Fri 09:14:00 AM 51.8063 -22.8418 263° West 453 521 35,000  Level FlightAware Transoceanic
Fri 09:15:00 AM 51.7898 -23.0438 262° West 453 521 35,000  Level FlightAware Transoceanic
Fri 09:16:00 AM 51.7730 -23.2456 262° West 453 521 35,000  Level FlightAware Transoceanic
Fri 09:17:00 AM 51.7559 -23.4473 262° West 453 521 35,000  Level FlightAware Transoceanic
Fri 09:18:00 AM 51.7384 -23.6488 262° West 453 521 35,000  Level FlightAware Transoceanic
Fri 09:19:00 AM 51.7206 -23.8502 262° West 453 521 35,000  Level FlightAware Transoceanic
Fri 09:20:00 AM 51.7024 -24.0514 262° West 453 521 35,000  Level FlightAware Transoceanic
Fri 09:21:00 AM 51.6839 -24.2525 261° West 453 521 35,000  Level FlightAware Transoceanic
Fri 09:22:00 AM 51.6650 -24.4534 261° West 453 521 35,000  Level FlightAware Transoceanic
Fri 09:23:00 AM 51.6458 -24.6541 261° West 453 521 35,000  Level FlightAware Transoceanic
Fri 09:24:00 AM 51.6263 -24.8546 261° West 453 521 35,000  Level FlightAware Transoceanic
Fri 09:25:00 AM 51.6064 -25.0550 261° West 453 521 35,000  Level FlightAware Transoceanic
Fri 09:26:00 AM 51.5861 -25.2552 261° West 453 521 35,000  Level FlightAware Transoceanic
Fri 09:27:00 AM 51.5656 -25.4552 261° West 453 521 35,000  Level FlightAware Transoceanic
Fri 09:28:00 AM 51.5447 -25.6550 260° West 453 521 35,000  Level FlightAware Transoceanic
Fri 09:29:00 AM 51.5234 -25.8547 260° West 453 521 35,000  Level FlightAware Transoceanic
Fri 09:30:00 AM 51.5018 -26.0541 260° West 453 521 35,000  Level FlightAware Transoceanic
Fri 09:31:00 AM 51.4799 -26.2534 260° West 453 521 35,000  Level FlightAware Transoceanic
Fri 09:32:00 AM 51.4576 -26.4525 260° West 453 521 35,000  Level FlightAware Transoceanic
Fri 09:33:00 AM 51.4351 -26.6514 260° West 453 521 35,000  Level FlightAware Transoceanic
Fri 09:34:00 AM 51.4121 -26.8500 259° West 453 521 35,000  Level FlightAware Transoceanic
Fri 09:35:00 AM 51.3889 -27.0485 259° West 453 521 35,000  Level FlightAware Transoceanic
Fri 09:36:00 AM 51.3652 -27.2468 259° West 453 521 35,000  Level FlightAware Transoceanic
Fri 09:37:00 AM 51.3413 -27.4449 259° West 453 521 35,000  Level FlightAware Transoceanic
Fri 09:38:00 AM 51.3170 -27.6427 259° West 453 521 35,000  Level FlightAware Transoceanic
Fri 09:39:00 AM 51.2924 -27.8404 259° West 453 521 35,000  Level FlightAware Transoceanic
Fri 09:40:00 AM 51.2675 -28.0378 259° West 453 521 35,000  Level FlightAware Transoceanic
Fri 09:41:00 AM 51.2422 -28.2351 258° West 453 521 35,000  Level FlightAware Transoceanic
Fri 09:42:00 AM 51.2166 -28.4321 258° West 453 521 35,000  Level FlightAware Transoceanic
Fri 09:43:00 AM 51.1907 -28.6289 258° West 453 521 35,000  Level FlightAware Transoceanic
Fri 09:44:00 AM 51.1644 -28.8254 258° West 453 521 35,000  Level FlightAware Transoceanic
Fri 09:45:00 AM 51.1379 -29.0218 258° West 453 521 35,000  Level FlightAware Transoceanic
Fri 09:46:00 AM 51.1109 -29.2179 258° West 453 521 35,000  Level FlightAware Transoceanic
Fri 09:47:00 AM 51.0837 -29.4138 257° West 453 521 35,000  Level FlightAware Transoceanic
Fri 09:48:00 AM 51.0561 -29.6094 257° West 453 521 35,000  Level FlightAware Transoceanic
Fri 09:49:00 AM 51.0282 -29.8048 257° West 453 521 35,000  Level FlightAware Transoceanic
Fri 09:50:00 AM 51.0010 -29.9930 257° West  Level FlightAware Approximate
Fri 09:51:00 AM 50.9736 -30.1809 257° West  Level FlightAware Approximate
Fri 09:52:00 AM 50.9718 -30.1728 256° West  Level FlightAware Approximate
Fri 09:52:00 AM 51.0000 -30.0000 257° West 474 545 35,000  Level ETMS Enhanced Traffic Management System
Fri 09:52:47 AM 51.0000 -30.0000 257° West 474 545 35,000  Level ETMS Enhanced Traffic Management System
Fri 09:53:00 AM 50.9410 -30.3593 255° West  Level FlightAware Approximate
Fri 09:54:00 AM 50.9099 -30.5455 255° West  Level FlightAware Approximate
Fri 09:55:00 AM 50.8785 -30.7315 255° West  Level FlightAware Approximate
Fri 09:56:00 AM 50.8468 -30.9173 255° West  Level FlightAware Approximate
Fri 09:57:00 AM 50.8148 -31.1028 255° West  Level FlightAware Approximate
Fri 09:58:00 AM 50.7773 -31.4202 255° West 474 545 35,000  Level FlightAware Transoceanic
Fri 09:59:00 AM 50.7441 -31.6219 255° West 474 545 35,000  Level FlightAware Transoceanic
Fri 10:00:00 AM 50.7106 -31.8234 255° West 474 545 35,000  Level FlightAware Transoceanic
Fri 10:01:00 AM 50.6767 -32.0246 255° West 474 545 35,000  Level FlightAware Transoceanic
Fri 10:02:00 AM 50.6424 -32.2255 255° West 474 545 35,000  Level FlightAware Transoceanic
Fri 10:03:00 AM 50.6078 -32.4261 255° West 474 545 35,000  Level FlightAware Transoceanic
Fri 10:04:00 AM 50.5729 -32.6264 255° West 474 545 35,000  Level FlightAware Transoceanic
Fri 10:05:00 AM 50.5376 -32.8264 254° West 474 545 35,000  Level FlightAware Transoceanic
Fri 10:06:00 AM 50.5020 -33.0261 254° West 474 545 35,000  Level FlightAware Transoceanic
Fri 10:07:00 AM 50.4660 -33.2255 254° West 474 545 35,000  Level FlightAware Transoceanic
Fri 10:08:00 AM 50.4297 -33.4245 254° West 474 545 35,000  Level FlightAware Transoceanic
Fri 10:09:00 AM 50.3930 -33.6233 254° West 474 545 35,000  Level FlightAware Transoceanic
Fri 10:10:00 AM 50.3560 -33.8218 254° West 474 545 35,000  Level FlightAware Transoceanic
Fri 10:11:00 AM 50.3187 -34.0200 253° West 474 545 35,000  Level FlightAware Transoceanic
Fri 10:12:00 AM 50.2811 -34.2178 253° West 474 545 35,000  Level FlightAware Transoceanic
Fri 10:13:00 AM 50.2431 -34.4154 253° West 474 545 35,000  Level FlightAware Transoceanic
Fri 10:14:00 AM 50.2048 -34.6126 253° West 474 545 35,000  Level FlightAware Transoceanic
Fri 10:15:00 AM 50.1661 -34.8095 253° West 474 545 35,000  Level FlightAware Transoceanic
Fri 10:16:00 AM 50.1271 -35.0061 253° West 474 545 35,000  Level FlightAware Transoceanic
Fri 10:17:00 AM 50.0878 -35.2024 253° West 474 545 35,000  Level FlightAware Transoceanic
Fri 10:18:00 AM 50.0481 -35.3983 252° West 474 545 35,000  Level FlightAware Transoceanic
Fri 10:19:00 AM 50.0081 -35.5939 252° West 474 545 35,000  Level FlightAware Transoceanic
Fri 10:20:00 AM 49.9678 -35.7892 252° West 474 545 35,000  Level FlightAware Transoceanic
Fri 10:21:00 AM 49.9272 -35.9842 252° West 474 545 35,000  Level FlightAware Transoceanic
Fri 10:22:00 AM 49.8862 -36.1788 252° West 474 545 35,000  Level FlightAware Transoceanic
Fri 10:23:00 AM 49.8449 -36.3731 252° West 474 545 35,000  Level FlightAware Transoceanic
Fri 10:24:00 AM 49.8033 -36.5671 252° West 474 545 35,000  Level FlightAware Transoceanic
Fri 10:25:00 AM 49.7614 -36.7607 251° West 474 545 35,000  Level FlightAware Transoceanic
Fri 10:26:00 AM 49.7191 -36.9540 251° West 474 545 35,000  Level FlightAware Transoceanic
Fri 10:27:00 AM 49.6765 -37.1470 251° West 474 545 35,000  Level FlightAware Transoceanic
Fri 10:28:00 AM 49.6336 -37.3396 251° West 474 545 35,000  Level FlightAware Transoceanic
Fri 10:29:00 AM 49.5904 -37.5319 251° West 474 545 35,000  Level FlightAware Transoceanic
Fri 10:30:00 AM 49.5469 -37.7238 251° West 474 545 35,000  Level FlightAware Transoceanic
Fri 10:31:00 AM 49.5030 -37.9154 251° West 474 545 35,000  Level FlightAware Transoceanic
Fri 10:32:00 AM 49.4589 -38.1067 250° West 474 545 35,000  Level FlightAware Transoceanic
Fri 10:33:00 AM 49.4144 -38.2976 250° West 474 545 35,000  Level FlightAware Transoceanic
Fri 10:34:00 AM 49.3696 -38.4882 250° West 474 545 35,000  Level FlightAware Transoceanic
Fri 10:35:00 AM 49.3245 -38.6784 250° West 474 545 35,000  Level FlightAware Transoceanic
Fri 10:36:00 AM 49.2790 -38.8682 250° West 474 545 35,000  Level FlightAware Transoceanic
Fri 10:37:00 AM 49.2333 -39.0577 250° West 474 545 35,000  Level FlightAware Transoceanic
Fri 10:38:00 AM 49.1872 -39.2469 249° West 474 545 35,000  Level FlightAware Transoceanic
Fri 10:39:00 AM 49.1409 -39.4357 249° West 474 545 35,000  Level FlightAware Transoceanic
Fri 10:40:00 AM 49.0942 -39.6242 249° West 474 545 35,000  Level FlightAware Transoceanic
Fri 10:41:00 AM 49.0473 -39.8123 249° West 474 545 35,000  Level FlightAware Transoceanic
Fri 10:42:00 AM 49.0037 -39.9852 249° West  Level FlightAware Approximate
Fri 10:43:00 AM 48.9599 -40.1578 249° West  Level FlightAware Approximate
Fri 10:44:00 AM 48.9775 -40.1494 257° West  Level FlightAware Approximate
Fri 10:44:00 AM 49.0000 -40.0000 257° West 465 535 35,000  Level ETMS Enhanced Traffic Management System
Fri 10:45:00 AM 48.9500 -40.3296 257° West  Level FlightAware Approximate
Fri 10:46:00 AM 48.9223 -40.5096 257° West  Level FlightAware Approximate
Fri 10:47:00 AM 48.8943 -40.6894 257° West  Level FlightAware Approximate
Fri 10:48:00 AM 48.8660 -40.8690 257° West  Level FlightAware Approximate
Fri 10:49:00 AM 48.8374 -41.0484 256° West  Level FlightAware Approximate
Fri 10:50:00 AM 48.7906 -41.3385 256° West 465 535 35,000  Level FlightAware Transoceanic
Fri 10:51:00 AM 48.7594 -41.5288 256° West 465 535 35,000  Level FlightAware Transoceanic
Fri 10:52:00 AM 48.7280 -41.7188 256° West 465 535 35,000  Level FlightAware Transoceanic
Fri 10:53:00 AM 48.6962 -41.9086 256° West 465 535 35,000  Level FlightAware Transoceanic
Fri 10:54:00 AM 48.6640 -42.0982 256° West 465 535 35,000  Level FlightAware Transoceanic
Fri 10:55:00 AM 48.6316 -42.2875 255° West 465 535 35,000  Level FlightAware Transoceanic
Fri 10:56:00 AM 48.5989 -42.4766 255° West 465 535 35,000  Level FlightAware Transoceanic
Fri 10:57:00 AM 48.5658 -42.6654 255° West 465 535 35,000  Level FlightAware Transoceanic
Fri 10:58:00 AM 48.5325 -42.8540 255° West 465 535 35,000  Level FlightAware Transoceanic
Fri 10:59:00 AM 48.4989 -43.0424 255° West 465 535 35,000  Level FlightAware Transoceanic
Fri 11:00:00 AM 48.4649 -43.2305 255° West 465 535 35,000  Level FlightAware Transoceanic
Fri 11:01:00 AM 48.4306 -43.4183 255° West 465 535 35,000  Level FlightAware Transoceanic
Fri 11:02:00 AM 48.3960 -43.6059 254° West 465 535 35,000  Level FlightAware Transoceanic
Fri 11:03:00 AM 48.3612 -43.7932 254° West 465 535 35,000  Level FlightAware Transoceanic
Fri 11:04:00 AM 48.3260 -43.9803 254° West 465 535 35,000  Level FlightAware Transoceanic
Fri 11:05:00 AM 48.2905 -44.1671 254° West 465 535 35,000  Level FlightAware Transoceanic
Fri 11:06:00 AM 48.2547 -44.3536 254° West 465 535 35,000  Level FlightAware Transoceanic
Fri 11:07:00 AM 48.2186 -44.5399 254° West 465 535 35,000  Level FlightAware Transoceanic
Fri 11:08:00 AM 48.1822 -44.7259 254° West 465 535 35,000  Level FlightAware Transoceanic
Fri 11:09:00 AM 48.1455 -44.9117 253° West 465 535 35,000  Level FlightAware Transoceanic
Fri 11:10:00 AM 48.1086 -45.0972 253° West 465 535 35,000  Level FlightAware Transoceanic
Fri 11:11:00 AM 48.0713 -45.2824 253° West 465 535 35,000  Level FlightAware Transoceanic
Fri 11:12:00 AM 48.0337 -45.4674 253° West 465 535 35,000  Level FlightAware Transoceanic
Fri 11:13:00 AM 47.9958 -45.6520 253° West 465 535 35,000  Level FlightAware Transoceanic
Fri 11:14:00 AM 47.9576 -45.8364 253° West 465 535 35,000  Level FlightAware Transoceanic
Fri 11:15:00 AM 47.9192 -46.0206 253° West 465 535 35,000  Level FlightAware Transoceanic
Fri 11:16:00 AM 47.8804 -46.2044 252° West 465 535 35,000  Level FlightAware Transoceanic
Fri 11:17:00 AM 47.8414 -46.3880 252° West 465 535 35,000  Level FlightAware Transoceanic
Fri 11:18:00 AM 47.8020 -46.5713 252° West 465 535 35,000  Level FlightAware Transoceanic
Fri 11:19:00 AM 47.7624 -46.7544 252° West 465 535 35,000  Level FlightAware Transoceanic
Fri 11:20:00 AM 47.7224 -46.9371 252° West 465 535 35,000  Level FlightAware Transoceanic
Fri 11:21:00 AM 47.6822 -47.1196 252° West 465 535 35,000  Level FlightAware Transoceanic
Fri 11:22:00 AM 47.6417 -47.3018 252° West 465 535 35,000  Level FlightAware Transoceanic
Fri 11:23:00 AM 47.6009 -47.4837 252° West 465 535 35,000  Level FlightAware Transoceanic
Fri 11:24:00 AM 47.5598 -47.6653 251° West 465 535 35,000  Level FlightAware Transoceanic
Fri 11:25:00 AM 47.5185 -47.8466 251° West 465 535 35,000  Level FlightAware Transoceanic
Fri 11:26:00 AM 47.4768 -48.0277 251° West 465 535 35,000  Level FlightAware Transoceanic
Fri 11:27:00 AM 47.4349 -48.2085 251° West 465 535 35,000  Level FlightAware Transoceanic
Fri 11:28:00 AM 47.3926 -48.3889 251° West 465 535 35,000  Level FlightAware Transoceanic
Fri 11:29:00 AM 47.3501 -48.5691 251° West 465 535 35,000  Level FlightAware Transoceanic
Fri 11:30:00 AM 47.3073 -48.7490 251° West 465 535 35,000  Level FlightAware Transoceanic
Fri 11:31:00 AM 47.2643 -48.9286 250° West 465 535 35,000  Level FlightAware Transoceanic
Fri 11:32:00 AM 47.2209 -49.1079 250° West 465 535 35,000  Level FlightAware Transoceanic
Fri 11:33:00 AM 47.1773 -49.2869 250° West 465 535 35,000  Level FlightAware Transoceanic
Fri 11:33:02 AM 47.1710 -49.3120 250° West 464 534 35,000  Level FlightAware ADS-B
Fri 11:33:47 AM 47.1380 -49.4460 250° West 462 532 35,000  Level FlightAware ADS-B
Fri 11:34:27 AM 47.1090 -49.5640 250° West 460 529 35,000  Level FlightAware ADS-B
Fri 11:35:12 AM 47.0760 -49.6970 250° West 459 528 35,000  Level FlightAware ADS-B
Fri 11:35:52 AM 47.0470 -49.8130 250° West 461 531 35,000  Level FlightAware ADS-B
Fri 11:36:27 AM 47.0240 -49.9050 250° West 461 531 35,000  Level FlightAware ADS-B
Fri 11:37:12 AM 46.9930 -50.0210 249° West 461 531 35,000  Level FlightAware ADS-B
Fri 11:37:52 AM 46.9670 -50.1210 249° West 461 531 35,000  Level FlightAware ADS-B
Fri 11:38:00 AM 47.0000 -50.0000 259° West 416 479 35,000  Level ETMS Enhanced Traffic Management System
Fri 11:38:42 AM 46.9350 -50.2450 249° West 461 531 35,000  Level FlightAware ADS-B
Fri 11:39:22 AM 46.9090 -50.3440 249° West 461 531 35,000  Level FlightAware ADS-B
Fri 11:40:02 AM 46.8830 -50.4430 249° West 461 531 35,000  Level FlightAware ADS-B
Fri 11:40:42 AM 46.8570 -50.5420 249° West 461 531 35,000  Level FlightAware ADS-B
Fri 11:41:22 AM 46.8310 -50.6410 249° West 461 531 35,000  Level FlightAware ADS-B
Fri 11:42:12 AM 46.7980 -50.7640 249° West 461 531 35,000  Level FlightAware ADS-B
Fri 11:42:52 AM 46.7720 -50.8630 249° West 461 531 35,000 327 Level FlightAware ADS-B
Fri 11:43:07 AM 46.9730 -51.1310 318° Northwest 447 514 35,300 655 Climbing FlightAware ADS-B
Fri 11:43:47 AM 46.9770 -51.2510 259° West 446 513 35,600 525 Climbing FlightAware ADS-B
Fri 11:44:27 AM 46.9810 -51.3740 273° West 443 510 36,000 282 Climbing FlightAware ADS-B
Fri 11:45:12 AM 46.9840 -51.4960 272° West 440 506 36,000  Level FlightAware ADS-B
Fri 11:45:57 AM 46.9890 -51.6410 273° West 439 505 36,000  Level FlightAware ADS-B
Fri 11:46:32 AM 46.9920 -51.7410 273° West 440 506 36,000  Level FlightAware ADS-B
Fri 11:47:12 AM 46.9950 -51.8610 272° West 442 509 36,000  Level FlightAware ADS-B
Fri 11:47:52 AM 46.9980 -51.9820 272° West 444 511 36,000  Level FlightAware ADS-B
Fri 11:48:32 AM 47.0010 -52.1020 272° West 445 512 36,000  Level FlightAware ADS-B
Fri 11:49:17 AM 47.0050 -52.2400 272° West 447 514 36,000  Level FlightAware ADS-B
Fri 11:50:02 AM 47.0080 -52.3710 272° West 448 516 36,000  Level FlightAware ADS-B
Fri 11:50:42 AM 47.0110 -52.4960 272° West 449 517 36,000  Level FlightAware ADS-B
Fri 11:51:22 AM 47.0130 -52.6160 271° West 449 517 36,000  Level FlightAware ADS-B
Fri 11:52:07 AM 47.0160 -52.7540 272° West 450 518 36,000  Level FlightAware ADS-B
Fri 11:52:47 AM 47.0180 -52.8780 271° West 451 519 36,000  Level FlightAware ADS-B
Fri 11:53:27 AM 47.0210 -52.9990 272° West 451 519 36,000  Level FlightAware ADS-B
Fri 11:54:12 AM 47.0230 -53.1330 271° West 450 518 36,000  Level FlightAware ADS-B
Fri 11:54:52 AM 47.0250 -53.2550 271° West 449 517 36,000  Level FlightAware ADS-B
Fri 11:55:37 AM 47.0270 -53.3930 271° West 448 516 36,000  Level FlightAware ADS-B
Fri 11:56:17 AM 47.0280 -53.5130 271° West 448 516 36,000  Level FlightAware ADS-B
Fri 11:56:57 AM 47.0300 -53.6360 271° West 447 514 36,000  Level FlightAware ADS-B
Fri 11:57:42 AM 47.0310 -53.7670 271° West 445 512 36,000  Level FlightAware ADS-B
Fri 11:58:17 AM 47.0320 -53.8750 271° West 444 511 36,000  Level FlightAware ADS-B
Fri 11:59:07 AM 47.0340 -54.0250 271° West 443 510 36,000  Level FlightAware ADS-B
Fri 11:59:47 AM 47.0350 -54.1450 271° West 442 509 36,000  Level FlightAware ADS-B
Fri 12:00:27 PM 47.0360 -54.2640 271° West 442 509 36,000  Level FlightAware ADS-B
Fri 12:01:12 PM 47.0360 -54.3950 270° West 440 506 36,000  Level FlightAware ADS-B
Fri 12:01:52 PM 47.0370 -54.5140 271° West 439 505 36,000  Level FlightAware ADS-B
Fri 12:02:37 PM 47.0370 -54.6500 270° West 438 504 36,000  Level FlightAware ADS-B
Fri 12:03:17 PM 47.0380 -54.7620 271° West 437 503 36,000  Level FlightAware ADS-B
Fri 12:04:02 PM 47.0380 -54.9000 270° West 436 502 36,000  Level FlightAware ADS-B
Fri 12:04:32 PM 47.0380 -54.9860 270° West 435 501 36,000  Level FlightAware ADS-B
Fri 12:05:22 PM 47.0380 -55.1130 270° West 434 499 36,000  Level FlightAware ADS-B
Fri 12:05:57 PM 47.0380 -55.2390 270° West 432 497 36,000  Level FlightAware ADS-B
Fri 12:06:47 PM 47.0370 -55.3800 269° West 36,000  Level FlightAware ADS-B
Fri 12:07:42 PM 47.0360 -55.5230 269° West 430 495 36,000  Level FlightAware ADS-B
Fri 12:08:22 PM 47.0350 -55.6230 269° West 430 495 36,000  Level FlightAware ADS-B
Fri 12:09:02 PM 47.0340 -55.7220 269° West 430 495 36,000  Level FlightAware ADS-B
Fri 12:09:52 PM 47.0320 -55.8460 269° West 430 495 36,000  Level FlightAware ADS-B
Fri 12:10:32 PM 47.0310 -55.9450 269° West 430 495 36,000  Level FlightAware ADS-B
Fri 12:11:12 PM 47.0300 -56.0440 269° West 430 495 36,000  Level FlightAware ADS-B
Fri 12:11:52 PM 47.0290 -56.1440 269° West 430 495 36,000  Level FlightAware ADS-B
Fri 12:12:32 PM 47.0280 -56.2430 269° West 430 495 36,000  Level FlightAware ADS-B
Fri 12:13:12 PM 47.0260 -56.3420 268° West 430 495 36,000  Level FlightAware ADS-B
Fri 12:14:02 PM 47.0250 -56.4660 269° West 430 495 36,000  Level FlightAware ADS-B
Fri 12:14:42 PM 47.0240 -56.5650 269° West 430 495 36,000  Level FlightAware ADS-B
Fri 12:15:22 PM 47.0230 -56.6640 269° West 430 495 36,000  Level FlightAware ADS-B
Fri 12:16:02 PM 47.0210 -56.7640 268° West 430 495 36,000  Level FlightAware ADS-B
Fri 12:16:42 PM 47.0200 -56.8630 269° West 430 495 36,000  Level FlightAware ADS-B
Fri 12:19:37 PM 47.0090 -57.5850 269° West 424 488 36,000  Level FlightAware ADS-B
Fri 12:20:27 PM 47.0050 -57.7310 268° West 425 489 36,000  Level FlightAware ADS-B
Fri 12:21:17 PM 47.0010 -57.8650 268° West 425 489 36,000  Level FlightAware ADS-B
Fri 12:21:57 PM 46.9990 -57.9960 269° West 426 490 36,000  Level FlightAware ADS-B
Fri 12:22:37 PM 46.9950 -58.1100 267° West 426 490 36,000  Level FlightAware ADS-B
Fri 12:23:22 PM 46.9920 -58.2390 268° West 426 490 36,000  Level FlightAware ADS-B
Fri 12:24:02 PM 46.9890 -58.3560 268° West 426 490 36,000  Level FlightAware ADS-B
Fri 12:24:47 PM 46.9850 -58.4840 267° West 425 489 36,000  Level FlightAware ADS-B
Fri 12:25:27 PM 46.9810 -58.5990 267° West 423 487 36,000  Level FlightAware ADS-B
Fri 12:26:07 PM 46.9770 -58.7110 267° West 420 483 36,000  Level FlightAware ADS-B
Fri 12:26:52 PM 46.9730 -58.8400 267° West 417 480 36,000  Level FlightAware ADS-B
Fri 12:27:32 PM 46.9690 -58.9540 267° West 415 478 36,000  Level FlightAware ADS-B
Fri 12:28:12 PM 46.9650 -59.0670 267° West 413 475 36,000  Level FlightAware ADS-B
Fri 12:28:57 PM 46.9610 -59.1890 267° West 412 474 36,000  Level FlightAware ADS-B
Fri 12:29:37 PM 46.9570 -59.2980 267° West 410 472 36,000  Level FlightAware ADS-B
Fri 12:30:17 PM 46.9530 -59.4090 267° West 410 472 36,000  Level FlightAware ADS-B
Fri 12:31:02 PM 46.9480 -59.5350 267° West 410 472 36,000  Level FlightAware ADS-B
Fri 12:31:42 PM 46.9430 -59.6470 266° West 410 472 36,000  Level FlightAware ADS-B
Fri 12:32:27 PM 46.9380 -59.7690 267° West 409 471 36,000  Level FlightAware ADS-B
Fri 12:33:07 PM 46.9330 -59.8800 266° West 409 471 36,000  Level FlightAware ADS-B
Fri 12:33:52 PM 46.9280 -60.0040 267° West 409 471 36,000  Level FlightAware ADS-B
Fri 12:34:32 PM 46.9230 -60.1160 266° West 409 471 36,000  Level FlightAware ADS-B
Fri 12:35:12 PM 46.9180 -60.2270 266° West 409 471 36,000  Level FlightAware ADS-B
Fri 12:35:57 PM 46.9130 -60.3470 267° West 408 470 36,000  Level FlightAware ADS-B
Fri 12:36:52 PM 46.9050 -60.5020 266° West 409 471 36,000  Level FlightAware ADS-B
Fri 12:37:32 PM 46.9000 -60.6110 266° West 410 472 36,000  Level FlightAware ADS-B
Fri 12:38:17 PM 46.8940 -60.7330 266° West 411 473 36,000  Level FlightAware ADS-B
Fri 12:38:57 PM 46.8880 -60.8440 266° West 410 472 36,000  Level FlightAware ADS-B
Fri 12:39:42 PM 46.8820 -60.9720 266° West 411 473 36,000  Level FlightAware ADS-B
Fri 12:40:22 PM 46.8760 -61.0790 265° West 411 473 36,000  Level FlightAware ADS-B
Fri 12:41:02 PM 46.8700 -61.1920 266° West 410 472 36,000  Level FlightAware ADS-B
Fri 12:41:47 PM 46.8630 -61.3140 265° West 410 472 36,000  Level FlightAware ADS-B
Fri 12:42:42 PM 46.8550 -61.4630 266° West 409 471 36,000  Level FlightAware ADS-B
Fri 12:43:22 PM 46.8480 -61.5750 265° West 410 472 36,000  Level FlightAware ADS-B
Fri 12:44:07 PM 46.8410 -61.6960 265° West 409 471 36,000  Level FlightAware ADS-B
Fri 12:45:02 PM 46.8320 -61.8400 265° West 409 471 36,000  Level FlightAware ADS-B
Fri 12:45:42 PM 46.8250 -61.9340 264° West 409 471 36,000  Level FlightAware ADS-B
Fri 12:46:22 PM 46.8180 -62.0270 264° West 409 471 36,000  Level FlightAware ADS-B
Fri 12:47:02 PM 46.8120 -62.1210 265° West 409 471 36,000  Level FlightAware ADS-B
Fri 12:47:42 PM 46.8050 -62.2140 264° West 409 471 36,000  Level FlightAware ADS-B
Fri 12:48:32 PM 46.7960 -62.3310 264° West 409 471 36,000  Level FlightAware ADS-B
Fri 12:49:12 PM 46.7900 -62.4250 265° West 409 471 36,000  Level FlightAware ADS-B
Fri 12:49:52 PM 46.7830 -62.5180 264° West 409 471 36,000  Level FlightAware ADS-B
Fri 12:50:32 PM 46.7760 -62.6120 264° West 409 471 36,000  Level FlightAware ADS-B
Fri 12:51:12 PM 46.7700 -62.7050 265° West 409 471 36,000  Level FlightAware ADS-B
Fri 12:52:02 PM 46.7610 -62.8220 264° West 409 471 36,000  Level FlightAware ADS-B
Fri 12:52:42 PM 46.7540 -62.9150 264° West 409 471 36,000  Level FlightAware ADS-B
Fri 12:53:22 PM 46.7480 -63.0090 265° West 409 471 36,000  Level FlightAware ADS-B
Fri 12:54:02 PM 46.7410 -63.1020 264° West 409 471 36,000  Level FlightAware ADS-B
Fri 12:54:46 PM 46.7000 -63.4167 264° West 400 460 36,000  Level Gander Center
Fri 12:55:46 PM 46.7000 -63.6000 270° West 410 472 36,000  Level Gander Center
Fri 12:56:46 PM 46.6833 -63.7333 260° West 400 460 36,000  Level Gander Center
Fri 12:57:46 PM 46.6833 -63.9167 270° West 400 460 36,000  Level Gander Center
Fri 12:58:46 PM 46.6667 -64.0833 262° West 400 460 36,000  Level Gander Center
Fri 12:59:46 PM 46.6500 -64.2333 261° West 400 460 36,000  Level Gander Center
Fri 01:00:46 PM 46.6333 -64.4000 262° West 400 460 36,000  Level Gander Center
Fri 01:01:48 PM 46.6333 -64.5667 270° West 400 460 36,000  Level Moncton Center
Fri 01:02:48 PM 46.6167 -64.7167 261° West 400 460 36,000  Level Moncton Center
Fri 01:03:48 PM 46.6000 -64.8833 262° West 410 472 36,000  Level Moncton Center
Fri 01:04:48 PM 46.5833 -65.0500 262° West 410 472 36,000  Level Moncton Center
Fri 01:05:48 PM 46.5667 -65.2167 262° West 410 472 36,000  Level Moncton Center
Fri 01:06:48 PM 46.5500 -65.3667 261° West 410 472 36,000  Level Moncton Center
Fri 01:07:48 PM 46.5333 -65.5333 262° West 410 472 36,000  Level Moncton Center
Fri 01:08:48 PM 46.5167 -65.7167 263° West 410 472 36,000  Level Moncton Center
Fri 01:15:07 PM 46.4290 -66.7590 263° West 421 484 36,000  Level FlightAware ADS-B
Fri 01:15:47 PM 46.4200 -66.8540 262° West 421 484 36,000  Level FlightAware ADS-B
Fri 01:16:27 PM 46.4110 -66.9490 262° West 421 484 36,000  Level FlightAware ADS-B
Fri 01:17:07 PM 46.4020 -67.0440 262° West 421 484 36,000  Level FlightAware ADS-B
Fri 01:17:57 PM 46.3900 -67.1630 262° West 421 484 36,000  Level FlightAware ADS-B
Fri 01:18:32 PM 46.3660 -67.3430 259° West 425 489 36,000  Level FlightAware ADS-B
Fri 01:19:17 PM 46.3520 -67.4590 260° West 425 489 36,000  Level FlightAware ADS-B
Fri 01:19:57 PM 46.3400 -67.5550 260° West 425 489 36,000  Level FlightAware ADS-B
Fri 01:20:47 PM 46.3260 -67.6740 260° West 425 489 36,000  Level FlightAware ADS-B
Fri 01:21:32 PM 46.3100 -67.8470 262° West 428 493 36,000  Level FlightAware ADS-B
Fri 01:22:22 PM 46.2920 -67.9980 260° West 431 496 36,000  Level FlightAware ADS-B
Fri 01:23:07 PM 46.2770 -68.1270 260° West 432 497 36,000  Level FlightAware ADS-B
Fri 01:23:47 PM 46.2640 -68.2410 261° West 433 498 36,000  Level FlightAware ADS-B
Fri 01:24:27 PM 46.2510 -68.3510 260° West 433 498 36,000  Level FlightAware ADS-B
Fri 01:25:12 PM 46.2360 -68.4820 261° West 433 498 36,000  Level FlightAware ADS-B
Fri 01:25:52 PM 46.2220 -68.5950 260° West 432 497 36,000  Level FlightAware ADS-B
Fri 01:26:32 PM 46.2080 -68.7070 260° West 431 496 36,000  Level FlightAware ADS-B
Fri 01:27:17 PM 46.1920 -68.8340 260° West 430 495 36,000  Level FlightAware ADS-B
Fri 01:27:52 PM 46.1800 -68.9320 260° West 430 495 36,000  Level FlightAware ADS-B
Fri 01:28:37 PM 46.1650 -69.0590 260° West 431 496 36,000  Level FlightAware ADS-B
Fri 01:29:17 PM 46.1500 -69.1710 259° West 433 498 36,000  Level FlightAware ADS-B
Fri 01:29:57 PM 46.1360 -69.2850 260° West 434 499 36,000  Level FlightAware ADS-B
Fri 01:30:42 PM 46.1190 -69.4120 259° West 436 502 36,000  Level FlightAware ADS-B
Fri 01:31:22 PM 46.1050 -69.5260 260° West 438 504 36,000  Level FlightAware ADS-B
Fri 01:32:07 PM 46.0880 -69.6540 259° West 440 506 36,000  Level FlightAware ADS-B
Fri 01:32:47 PM 46.0730 -69.7710 260° West 442 509 36,000  Level FlightAware ADS-B
Fri 01:33:27 PM 46.0580 -69.8840 259° West 444 511 36,000  Level FlightAware ADS-B
Fri 01:34:12 PM 46.0400 -70.0150 259° West 445 512 36,000  Level FlightAware ADS-B
Fri 01:34:52 PM 46.0240 -70.1310 259° West 444 511 36,000  Level FlightAware ADS-B
Fri 01:35:37 PM 46.0070 -70.2600 259° West 445 512 36,000  Level FlightAware ADS-B
Fri 01:36:17 PM 45.9910 -70.3760 259° West 445 512 36,000  Level FlightAware ADS-B
Fri 01:36:57 PM 45.9750 -70.4910 259° West 445 512 36,000  Level FlightAware ADS-B
Fri 01:37:42 PM 45.9570 -70.6220 259° West 443 510 36,000  Level FlightAware ADS-B
Fri 01:38:22 PM 45.9410 -70.7360 259° West 443 510 36,000  Level FlightAware ADS-B
Fri 01:39:07 PM 45.9240 -70.8650 259° West 441 507 36,000  Level FlightAware ADS-B
Fri 01:39:47 PM 45.9130 -70.9810 262° West 439 505 36,000  Level FlightAware ADS-B
Fri 01:40:27 PM 45.9040 -71.0960 264° West 438 504 36,000 -635 Level FlightAware ADS-B
Fri 01:41:12 PM 45.8920 -71.2250 262° West 443 510 35,100 -1,059 Descending FlightAware ADS-B
Fri 01:41:52 PM 45.8820 -71.3390 263° West 432 497 34,500 -1,271 Descending FlightAware ADS-B
Fri 01:42:37 PM 45.8710 -71.4670 263° West 433 498 33,300 -1,412 Descending FlightAware ADS-B
Fri 01:43:17 PM 45.8610 -71.5800 263° West 422 486 32,500 -1,650 Descending FlightAware ADS-B
Fri 01:43:57 PM 45.8500 -71.6890 262° West 411 473 31,100 -2,188 Descending FlightAware ADS-B
Fri 01:44:42 PM 45.8390 -71.8070 262° West 399 459 29,400 -2,259 Descending FlightAware ADS-B
Fri 01:45:22 PM 45.8300 -71.9100 263° West 391 450 27,900 -2,259 Descending FlightAware ADS-B
Fri 01:46:07 PM 45.8190 -72.0240 262° West 380 437 26,200 -2,329 Descending FlightAware ADS-B
Fri 01:46:47 PM 45.8100 -72.1220 263° West 371 427 24,600 -2,400 Descending FlightAware ADS-B
Fri 01:47:27 PM 45.8000 -72.2180 262° West 364 419 23,000 -2,329 Descending FlightAware ADS-B
Fri 01:48:12 PM 45.7900 -72.3230 262° West 357 411 21,300 -2,259 Descending FlightAware ADS-B
Fri 01:48:52 PM 45.7810 -72.4170 262° West 353 406 19,800 -2,250 Descending FlightAware ADS-B
Fri 01:49:32 PM 45.7720 -72.5070 262° West 350 403 18,300 -2,682 Descending FlightAware ADS-B
Fri 01:50:17 PM 45.7610 -72.6150 262° West 358 412 16,000 -2,753 Descending FlightAware ADS-B
Fri 01:50:57 PM 45.7510 -72.7100 261° West 353 406 14,400 -2,259 Descending FlightAware ADS-B
Fri 01:51:42 PM 45.7410 -72.8100 262° West 348 400 12,800 -2,188 Descending FlightAware ADS-B
Fri 01:52:22 PM 45.7320 -72.9010 262° West 344 396 11,300 -1,832 Descending FlightAware ADS-B
Fri 01:53:17 PM 45.7200 -73.0160 262° West 324 373 9,900 -1,275 Descending FlightAware ADS-B
Fri 01:53:42 PM 45.7140 -73.0670 260° West 303 349 9,600 -436 Descending FlightAware ADS-B
Fri 01:54:12 PM 45.7080 -73.1250 262° West 274 315 9,500 -267 Descending FlightAware ADS-B
Fri 01:54:27 PM 45.7050 -73.1460 258° West 263 303 9,400 -1,067 Descending FlightAware ADS-B
Fri 01:54:57 PM 45.6960 -73.1960 256° West 261 300 8,700 -1,418 Descending FlightAware ADS-B
Fri 01:55:22 PM 45.6890 -73.2400 257° West 259 298 8,100 -1,371 Descending FlightAware ADS-B
Fri 01:56:07 PM 45.6760 -73.3150 256° West 255 293 7,100 -1,457 Descending FlightAware ADS-B
Fri 01:56:32 PM 45.6690 -73.3540 256° West 255 293 6,400 -1,636 Descending FlightAware ADS-B
Fri 01:57:02 PM 45.6620 -73.4000 258° West 251 289 5,600 -1,733 Descending FlightAware ADS-B
Fri 01:57:17 PM 45.6570 -73.4280 256° West 247 284 5,100 -1,333 Descending FlightAware ADS-B
Fri 01:57:47 PM 45.6490 -73.4730 256° West 229 264 4,600 -1,080 Descending FlightAware ADS-B
Fri 01:58:07 PM 45.6450 -73.4990 258° West 223 257 4,200 -1,200 Descending FlightAware ADS-B
Fri 01:58:27 PM 45.6380 -73.5280 251° West 221 254 3,800 -1,080 Descending FlightAware ADS-B
Fri 01:58:57 PM 45.6170 -73.5610 228° Southwest 213 245 3,300 -982 Descending FlightAware ADS-B
Fri 01:59:22 PM 45.5990 -73.5840 222° Southwest 206 237 2,900 -1,050 Descending FlightAware ADS-B
Fri 01:59:37 PM 45.5870 -73.6000 223° Southwest 194 223 2,600 -1,200 Descending FlightAware ADS-B
Fri 02:00:07 PM 45.5680 -73.6240 221° Southwest 184 212 2,000 -1,091 Descending FlightAware ADS-B
Fri 02:00:32 PM 45.5540 -73.6430 224° Southwest 179 206 1,600 -873 Descending FlightAware ADS-B
Fri 02:01:02 PM 45.5370 -73.6650 222° Southwest 165 190 1,200 -933 Descending FlightAware ADS-B
Fri 02:01:17 PM 45.5280 -73.6770 223° Southwest 150 173 900 -857 Descending FlightAware ADS-B
Fri 02:01:37 PM 45.5180 -73.6900 222° Southwest 145 167 700 -764 Descending FlightAware ADS-B
Fri 02:02:12 PM 45.5020 -73.7120 224° Southwest 135 155 200 -857 Descending FlightAware ADS-B
Fri 02:02:42 PM 45.4880 -73.7300 222° Southwest 132 152 -400 Descending FlightAware ADS-B

Login

Don't have an account? Register now (free) for customized features, flight alerts, and more!